Lafayette Regional Airport
KLFT : now visible

Airfield :











YOU CAN JOIN US ON...

 
LOGIN :

Register | Disclaimer

   EN    FR    IT 

 









Legend :    VFR   Marginal VFR   IFR   Intensive IFR   Very Intensive IFR
Visi :
Ceiling :
>= 8 km
>= 3000ft
5 to 8 km
1000 to 3000 ft
1500m to 5 km
500 to 1000 ft
800 to 1500m
200 to 500 ft
< 800m
< 200 ft
Symbols :   Thunderstorms  Fog  Heavy snow  Heavy precipitations  Wind > 20 kt






- Airport Elevation : 42 ft
- IATA code : LFT


KLFT - Lafayette Regional

CURRENT METAR :
  • 290553Z AUTO 00000KT 10SM CLR 20/20 A3001 RMK AO2 SLP162 T02000200 10222 20194 403500194 55003 $

EXPIRED METARs :
  • 290453Z AUTO 03005KT 10SM CLR 20/20 A3001 RMK AO2 SLP160 T02000200 $
  • 290353Z AUTO 03004KT 10SM CLR 20/20 A3002 RMK AO2 SLP164 T02000200 $
  • 290253Z 02005KT 10SM CLR 21/20 A3002 RMK AO2 SLP165 T02110200 53010 $
  • 290153Z 36007KT 10SM CLR 22/20 A3002 RMK AO2 SLP164 T02170200 $
  • 290053Z VRB06KT 10SM CLR 22/20 A2998 RMK AO2 SLP150 T02170200 $

TAF KLFT
Valid from the 29 at 06:00 until the 30 at 06:00 UTC


290520Z 2906/3006 VRB05KT P6SM BKN100
FM290800 VRB03KT P6SM SCT120
TEMPO 2909/2913 5SM BR BKN025
FM291500 12004KT P6SM SCT030
FM291800 18007KT P6SM BKN250
KZHU FIR / North America



MET'MAP, your aeronautical weather chart ! - Copyright ORBIFLY December 2007 - Disclaimer

ORBIFLY MET'MAP TEAM :

Programming & Development : Alexandra Zaïnal
Original concept : Baudouin d'Aumeries
Technical & hardware support : Manuel Goepfert
Assistance : Marc-Olivier Méhu




SOURCES & CREDITS :

   NOAA       Earth
Advisory